createdAt,value
2019-03-19T00:00:29.676Z,0
2019-03-19T00:01:29.898Z,0
2019-03-19T00:02:29.879Z,0
2019-03-19T00:03:29.891Z,0
2019-03-19T00:04:29.881Z,0
2019-03-19T00:05:29.887Z,0
2019-03-19T00:06:30.098Z,0
2019-03-19T00:07:29.832Z,0
2019-03-19T00:08:29.821Z,0
2019-03-19T00:09:29.567Z,0
2019-03-19T00:10:29.556Z,0
2019-03-19T00:11:29.809Z,0
2019-03-19T00:12:30.058Z,0
2019-03-19T00:13:29.529Z,0
2019-03-19T00:14:30.025Z,0
2019-03-19T00:15:29.756Z,0
2019-03-19T00:16:29.969Z,0
2019-03-19T00:17:29.978Z,0
2019-03-19T00:18:29.718Z,0
2019-03-19T00:19:31.849Z,0
2019-03-19T00:20:29.959Z,0
2019-03-19T00:21:29.717Z,0
2019-03-19T00:22:30.413Z,0
2019-03-19T00:23:29.941Z,0
2019-03-19T00:24:29.411Z,0
2019-03-19T00:25:38.551Z,0
2019-03-19T00:26:29.687Z,0
2019-03-19T00:27:29.878Z,0
2019-03-19T00:28:29.361Z,0
2019-03-19T00:29:29.594Z,0
2019-03-19T00:30:29.344Z,0
2019-03-19T00:31:29.816Z,0
2019-03-19T00:32:29.812Z,0
2019-03-19T00:33:29.552Z,0
2019-03-19T00:34:29.785Z,0
2019-03-19T00:35:29.791Z,0
2019-03-19T00:36:29.279Z,0
2019-03-19T00:37:29.755Z,0
2019-03-19T00:38:29.736Z,0
2019-03-19T00:39:29.729Z,0
2019-03-19T00:40:29.716Z,0
2019-03-19T00:41:29.458Z,0
2019-03-19T00:42:29.451Z,0
2019-03-19T00:43:29.687Z,0
2019-03-19T00:44:29.678Z,0
2019-03-19T00:45:29.682Z,0
2019-03-19T00:46:29.676Z,0
2019-03-19T00:47:28.909Z,0
2019-03-19T00:48:30.441Z,0
2019-03-19T00:49:29.664Z,0
2019-03-19T00:50:29.145Z,0
2019-03-19T00:51:29.110Z,0
2019-03-19T00:52:29.348Z,0
2019-03-19T00:53:29.342Z,0
2019-03-19T00:54:29.320Z,0
2019-03-19T00:55:39.845Z,0
2019-03-19T00:56:29.549Z,0
2019-03-19T00:57:29.545Z,0
2019-03-19T00:58:29.318Z,0
2019-03-19T00:59:29.520Z,0
2019-03-19T01:00:28.769Z,0
2019-03-19T01:01:29.287Z,0
2019-03-19T01:02:29.262Z,0
2019-03-19T01:03:29.259Z,0
2019-03-19T01:04:29.457Z,0
2019-03-19T01:05:29.230Z,0
2019-03-19T01:06:29.458Z,0
2019-03-19T01:07:29.221Z,0
2019-03-19T01:08:29.451Z,0
2019-03-19T01:09:29.175Z,0
2019-03-19T01:10:29.420Z,0
2019-03-19T01:11:29.153Z,0
2019-03-19T01:12:29.139Z,0
2019-03-19T01:13:29.131Z,0
2019-03-19T01:14:29.119Z,0
2019-03-19T01:15:29.366Z,0
2019-03-19T01:16:28.869Z,0
2019-03-19T01:17:29.351Z,0
2019-03-19T01:18:31.181Z,0
2019-03-19T01:19:29.329Z,0
2019-03-19T01:20:28.834Z,0
2019-03-19T01:21:28.816Z,0
2019-03-19T01:22:29.110Z,0
2019-03-19T01:23:29.030Z,0
2019-03-19T01:24:29.274Z,0
2019-03-19T01:25:29.451Z,0
2019-03-19T01:26:29.284Z,0
2019-03-19T01:27:29.259Z,0
2019-03-19T01:28:28.976Z,0
2019-03-19T01:29:28.984Z,0
2019-03-19T01:30:28.984Z,0
2019-03-19T01:31:28.709Z,0
2019-03-19T01:32:28.681Z,0
2019-03-19T01:33:28.930Z,0
2019-03-19T01:34:28.666Z,0
2019-03-19T01:35:29.139Z,0
2019-03-19T01:36:28.922Z,0
2019-03-19T01:37:28.632Z,0
2019-03-19T01:38:28.876Z,0
2019-03-19T01:39:29.126Z,0
2019-03-19T01:40:28.880Z,0
2019-03-19T01:41:28.848Z,0
2019-03-19T01:42:28.850Z,0
2019-03-19T01:43:28.843Z,0
2019-03-19T01:44:28.851Z,0
2019-03-19T01:45:28.811Z,0
2019-03-19T01:46:29.057Z,0
2019-03-19T01:47:29.040Z,0
2019-03-19T01:48:28.278Z,0
2019-03-19T01:49:33.875Z,0
2019-03-19T01:50:28.748Z,0
2019-03-19T01:51:28.748Z,0
2019-03-19T01:52:28.751Z,0
2019-03-19T01:53:28.490Z,0
2019-03-19T01:54:28.978Z,0
2019-03-19T01:55:30.012Z,0
2019-03-19T01:56:28.221Z,0
2019-03-19T01:57:28.703Z,0
2019-03-19T01:58:28.446Z,0
2019-03-19T01:59:28.453Z,0
2019-03-19T02:00:28.908Z,0
2019-03-19T02:01:28.657Z,0
2019-03-19T02:02:28.641Z,0
2019-03-19T02:03:28.383Z,0
2019-03-19T02:04:28.627Z,0
2019-03-19T02:05:28.137Z,0
2019-03-19T02:06:28.351Z,0
2019-03-19T02:07:28.601Z,0
2019-03-19T02:08:28.633Z,0
2019-03-19T02:09:28.878Z,0
2019-03-19T02:10:28.332Z,0
2019-03-19T02:11:28.805Z,0
2019-03-19T02:12:28.303Z,0
2019-03-19T02:13:28.040Z,0
2019-03-19T02:14:28.302Z,0
2019-03-19T02:15:28.264Z,0
2019-03-19T02:16:28.516Z,0
2019-03-19T02:17:28.258Z,0
2019-03-19T02:18:28.247Z,0
2019-03-19T02:19:28.897Z,0
2019-03-19T02:20:28.222Z,0
2019-03-19T02:21:28.464Z,0
2019-03-19T02:22:28.216Z,0
2019-03-19T02:23:28.695Z,0
2019-03-19T02:24:28.446Z,0
2019-03-19T02:25:28.441Z,0
2019-03-19T02:26:27.930Z,0
2019-03-19T02:27:28.184Z,0
2019-03-19T02:28:28.152Z,0
2019-03-19T02:29:28.664Z,0
2019-03-19T02:30:28.450Z,0
2019-03-19T02:31:28.632Z,0
2019-03-19T02:32:28.634Z,0
2019-03-19T02:33:28.625Z,0
2019-03-19T02:34:28.352Z,0
2019-03-19T02:35:28.376Z,0
2019-03-19T02:36:28.335Z,0
2019-03-19T02:37:28.348Z,0
2019-03-19T02:38:28.596Z,0
2019-03-19T02:39:28.595Z,0
2019-03-19T02:40:28.570Z,0
2019-03-19T02:41:28.304Z,0
2019-03-19T02:42:28.629Z,0
2019-03-19T02:43:32.315Z,0
2019-03-19T02:44:28.299Z,0
2019-03-19T02:45:28.630Z,0
2019-03-19T02:46:28.274Z,0
2019-03-19T02:47:28.493Z,0
2019-03-19T02:48:27.976Z,0
2019-03-19T02:49:27.970Z,0
2019-03-19T02:50:28.612Z,0
2019-03-19T02:51:28.325Z,0
2019-03-19T02:52:28.188Z,0
2019-03-19T02:53:29.551Z,0
2019-03-19T02:54:28.155Z,0
2019-03-19T02:55:27.682Z,0
2019-03-19T02:56:42.008Z,0
2019-03-19T02:57:28.135Z,0
2019-03-19T02:58:28.165Z,0
2019-03-19T02:59:27.856Z,0
2019-03-19T03:00:27.906Z,0
2019-03-19T03:01:28.353Z,0
2019-03-19T03:02:27.851Z,0
2019-03-19T03:03:28.359Z,0
2019-03-19T03:04:28.289Z,0
2019-03-19T03:05:28.314Z,0
2019-03-19T03:06:28.060Z,0
2019-03-19T03:07:27.780Z,0
2019-03-19T03:08:28.018Z,0
2019-03-19T03:09:28.261Z,0
2019-03-19T03:10:28.844Z,0
2019-03-19T03:11:28.255Z,0
2019-03-19T03:12:28.000Z,0
2019-03-19T03:13:27.988Z,0
2019-03-19T03:14:28.266Z,0
2019-03-19T03:15:28.018Z,0
2019-03-19T03:16:28.193Z,0
2019-03-19T03:17:27.454Z,0
2019-03-19T03:18:27.954Z,0
2019-03-19T03:19:28.151Z,0
2019-03-19T03:20:28.287Z,0
2019-03-19T03:21:27.921Z,0
2019-03-19T03:22:27.429Z,0
2019-03-19T03:23:27.920Z,0
2019-03-19T03:24:27.383Z,0
2019-03-19T03:25:27.897Z,0
2019-03-19T03:26:27.868Z,0
2019-03-19T03:27:27.851Z,0
2019-03-19T03:28:28.111Z,0
2019-03-19T03:29:28.098Z,0
2019-03-19T03:30:28.411Z,0
2019-03-19T03:31:27.902Z,0
2019-03-19T03:32:27.601Z,0
2019-03-19T03:33:27.870Z,0
2019-03-19T03:34:28.062Z,0
2019-03-19T03:35:28.101Z,0
2019-03-19T03:36:27.579Z,0
2019-03-19T03:37:27.740Z,0
2019-03-19T03:38:27.995Z,0
2019-03-19T03:39:27.753Z,0
2019-03-19T03:40:27.226Z,0
2019-03-19T03:41:27.724Z,0
2019-03-19T03:42:27.962Z,0
2019-03-19T03:43:27.965Z,0
2019-03-19T03:44:27.691Z,0
2019-03-19T03:45:27.964Z,0
2019-03-19T03:46:27.660Z,0
2019-03-19T03:47:27.655Z,0
2019-03-19T03:48:27.905Z,0
2019-03-19T03:49:27.634Z,0
2019-03-19T03:50:28.556Z,0
2019-03-19T03:51:27.642Z,0
2019-03-19T03:52:27.875Z,0
2019-03-19T03:53:27.651Z,0
2019-03-19T03:54:27.875Z,0
2019-03-19T03:55:27.412Z,0
2019-03-19T03:56:27.307Z,0
2019-03-19T03:57:27.639Z,0
2019-03-19T03:58:27.032Z,0
2019-03-19T03:59:27.557Z,0
2019-03-19T04:00:27.368Z,0
2019-03-19T04:01:27.512Z,0
2019-03-19T04:02:27.556Z,0
2019-03-19T04:03:27.520Z,0
2019-03-19T04:04:27.720Z,0
2019-03-19T04:05:27.460Z,0
2019-03-19T04:06:27.455Z,0
2019-03-19T04:07:27.184Z,0
2019-03-19T04:08:27.713Z,0
2019-03-19T04:09:27.412Z,0
2019-03-19T04:10:27.693Z,0
2019-03-19T04:11:27.703Z,0
2019-03-19T04:12:27.164Z,0
2019-03-19T04:13:27.261Z,0
2019-03-19T04:14:27.357Z,0
2019-03-19T04:15:27.579Z,0
2019-03-19T04:16:27.405Z,0
2019-03-19T04:17:27.597Z,0
2019-03-19T04:18:27.359Z,0
2019-03-19T04:19:27.587Z,0
2019-03-19T04:20:27.544Z,0
2019-03-19T04:21:27.589Z,0
2019-03-19T04:22:26.792Z,0
2019-03-19T04:23:27.296Z,0
2019-03-19T04:24:27.053Z,0
2019-03-19T04:25:27.011Z,0
2019-03-19T04:26:26.758Z,0
2019-03-19T04:27:27.228Z,0
2019-03-19T04:28:27.252Z,0
2019-03-19T04:29:27.228Z,0
2019-03-19T04:30:27.013Z,0
2019-03-19T04:31:27.466Z,0
2019-03-19T04:32:26.974Z,0
2019-03-19T04:33:26.949Z,0
2019-03-19T04:34:26.937Z,0
2019-03-19T04:35:27.357Z,0
2019-03-19T04:36:27.164Z,0
2019-03-19T04:37:27.167Z,0
2019-03-19T04:38:27.381Z,0
2019-03-19T04:39:27.123Z,0
2019-03-19T04:40:27.422Z,0
2019-03-19T04:41:27.118Z,0
2019-03-19T04:42:26.846Z,0
2019-03-19T04:43:26.900Z,0
2019-03-19T04:44:27.376Z,0
2019-03-19T04:45:26.827Z,0
2019-03-19T04:46:27.057Z,0
2019-03-19T04:47:26.791Z,0
2019-03-19T04:48:26.902Z,0
2019-03-19T04:49:26.610Z,0
2019-03-19T04:50:26.764Z,0
2019-03-19T04:51:27.203Z,0
2019-03-19T04:52:26.744Z,0
2019-03-19T04:53:29.104Z,0
2019-03-19T04:54:26.981Z,0
2019-03-19T04:55:27.026Z,0
2019-03-19T04:56:26.999Z,0
2019-03-19T04:57:36.205Z,0
2019-03-19T04:58:26.704Z,0
2019-03-19T04:59:26.947Z,0
2019-03-19T05:00:26.502Z,0
2019-03-19T05:01:26.908Z,0
2019-03-19T05:02:27.156Z,0
2019-03-19T05:03:26.642Z,0
2019-03-19T05:04:26.650Z,0
2019-03-19T05:05:26.771Z,0
2019-03-19T05:06:26.698Z,0
2019-03-19T05:07:26.694Z,0
2019-03-19T05:08:26.844Z,0
2019-03-19T05:09:26.841Z,0
2019-03-19T05:10:26.868Z,0
2019-03-19T05:11:26.840Z,0
2019-03-19T05:12:26.810Z,0
2019-03-19T05:13:26.577Z,0
2019-03-19T05:14:27.026Z,0
2019-03-19T05:15:26.628Z,0
2019-03-19T05:16:26.526Z,0
2019-03-19T05:17:26.751Z,0
2019-03-19T05:18:26.503Z,0
2019-03-19T05:19:26.739Z,0
2019-03-19T05:20:26.526Z,0
2019-03-19T05:21:27.829Z,0
2019-03-19T05:22:26.721Z,0
2019-03-19T05:23:26.467Z,0
2019-03-19T05:24:26.677Z,0
2019-03-19T05:25:27.001Z,0
2019-03-19T05:26:26.418Z,0
2019-03-19T05:27:36.726Z,0
2019-03-19T05:28:26.665Z,0
2019-03-19T05:29:26.413Z,0
2019-03-19T05:30:26.449Z,0
2019-03-19T05:31:26.385Z,0
2019-03-19T05:32:26.125Z,5
2019-03-19T05:33:29.101Z,5
2019-03-19T05:34:26.356Z,5
2019-03-19T05:35:26.687Z,5
2019-03-19T05:36:26.363Z,5
2019-03-19T05:37:26.346Z,5
2019-03-19T05:38:26.823Z,5
2019-03-19T05:39:26.555Z,10
2019-03-19T05:40:26.147Z,10
2019-03-19T05:41:26.541Z,10
2019-03-19T05:42:26.284Z,10
2019-03-19T05:43:26.281Z,10
2019-03-19T05:44:26.512Z,10
2019-03-19T05:45:26.408Z,15
2019-03-19T05:46:25.966Z,15
2019-03-19T05:47:36.526Z,15
2019-03-19T05:48:26.231Z,15
2019-03-19T05:49:26.243Z,20
2019-03-19T05:50:26.299Z,20
2019-03-19T05:51:26.206Z,20
2019-03-19T05:52:26.190Z,25
2019-03-19T05:53:26.191Z,25
2019-03-19T05:54:26.212Z,25
2019-03-19T05:55:26.469Z,25
2019-03-19T05:56:26.149Z,30
2019-03-19T05:57:26.387Z,30
2019-03-19T05:58:26.151Z,30
2019-03-19T05:59:26.658Z,35
2019-03-19T06:00:26.411Z,35
2019-03-19T06:01:25.916Z,35
2019-03-19T06:02:26.591Z,40
2019-03-19T06:03:25.834Z,40
2019-03-19T06:04:26.582Z,40
2019-03-19T06:05:28.157Z,45
2019-03-19T06:06:26.295Z,45
2019-03-19T06:07:25.785Z,45
2019-03-19T06:08:26.282Z,50
2019-03-19T06:09:26.520Z,50
2019-03-19T06:10:28.213Z,50
2019-03-19T06:11:25.755Z,50
2019-03-19T06:12:25.498Z,50
2019-03-19T06:13:26.000Z,55
2019-03-19T06:14:26.217Z,60
2019-03-19T06:15:25.786Z,65
2019-03-19T06:16:26.264Z,65
2019-03-19T06:17:26.204Z,70
2019-03-19T06:18:36.718Z,70
2019-03-19T06:19:26.171Z,70
2019-03-19T06:20:26.211Z,70
2019-03-19T06:21:26.405Z,70
2019-03-19T06:22:26.226Z,65
2019-03-19T06:23:26.170Z,65
2019-03-19T06:24:25.890Z,70
2019-03-19T06:25:26.475Z,70
2019-03-19T06:26:26.342Z,70
2019-03-19T06:27:26.383Z,70
2019-03-19T06:28:25.829Z,70
2019-03-19T06:29:25.831Z,70
2019-03-19T06:30:25.910Z,70
2019-03-19T06:31:26.297Z,70
2019-03-19T06:32:26.058Z,70
2019-03-19T06:33:26.053Z,70
2019-03-19T06:34:26.045Z,75
2019-03-19T06:35:26.096Z,70
2019-03-19T06:36:26.309Z,75
2019-03-19T06:37:25.782Z,75
2019-03-19T06:38:25.749Z,75
2019-03-19T06:39:26.003Z,80
2019-03-19T06:40:26.285Z,80
2019-03-19T06:41:26.213Z,80
2019-03-19T06:42:25.964Z,80
2019-03-19T06:43:25.964Z,80
2019-03-19T06:44:25.689Z,85
2019-03-19T06:45:27.993Z,85
2019-03-19T06:46:25.894Z,80
2019-03-19T06:47:25.890Z,80
2019-03-19T06:48:25.902Z,80
2019-03-19T06:49:25.863Z,80
2019-03-19T06:50:28.070Z,85
2019-03-19T06:51:25.878Z,85
2019-03-19T06:52:26.581Z,90
2019-03-19T06:53:26.097Z,90
2019-03-19T06:54:26.141Z,90
2019-03-19T06:55:25.659Z,90
2019-03-19T06:56:26.103Z,95
2019-03-19T06:57:25.609Z,100
2019-03-19T06:58:25.576Z,105
2019-03-19T06:59:25.579Z,105
2019-03-19T07:00:25.802Z,110
2019-03-19T07:01:26.308Z,110
2019-03-19T07:02:25.287Z,115
2019-03-19T07:03:25.780Z,130
2019-03-19T07:04:25.506Z,120
2019-03-19T07:05:25.802Z,115
2019-03-19T07:06:27.120Z,115
2019-03-19T07:07:25.261Z,120
2019-03-19T07:08:25.536Z,120
2019-03-19T07:09:25.518Z,125
2019-03-19T07:10:25.727Z,135
2019-03-19T07:11:25.447Z,170
2019-03-19T07:12:25.759Z,185
2019-03-19T07:13:25.440Z,185
2019-03-19T07:14:25.792Z,200
2019-03-19T07:15:25.578Z,190
2019-03-19T07:16:25.671Z,145
2019-03-19T07:17:25.675Z,150
2019-03-19T07:18:25.890Z,190
2019-03-19T07:19:25.887Z,170
2019-03-19T07:20:25.922Z,140
2019-03-19T07:21:25.614Z,125
2019-03-19T07:22:26.964Z,120
2019-03-19T07:23:25.858Z,120
2019-03-19T07:24:25.370Z,120
2019-03-19T07:25:25.871Z,120
2019-03-19T07:26:25.370Z,120
2019-03-19T07:27:25.862Z,125
2019-03-19T07:28:31.699Z,125
2019-03-19T07:29:25.610Z,155
2019-03-19T07:30:25.381Z,130
2019-03-19T07:31:35.646Z,180
2019-03-19T07:32:25.823Z,215
2019-03-19T07:33:25.817Z,210
2019-03-19T07:34:25.558Z,220
2019-03-19T07:35:25.908Z,225
2019-03-19T07:36:25.594Z,225
2019-03-19T07:37:25.776Z,225
2019-03-19T07:38:25.562Z,225
2019-03-19T07:39:25.778Z,225
2019-03-19T07:40:25.614Z,230
2019-03-19T07:41:27.254Z,230
2019-03-19T07:42:25.274Z,230
2019-03-19T07:43:25.527Z,230
2019-03-19T07:44:25.777Z,230
2019-03-19T07:45:25.594Z,235
2019-03-19T07:46:25.772Z,230
2019-03-19T07:47:25.533Z,235
2019-03-19T07:48:25.279Z,235
2019-03-19T07:49:25.248Z,235
2019-03-19T07:50:25.316Z,235
2019-03-19T07:51:25.521Z,240
2019-03-19T07:52:25.526Z,240
2019-03-19T07:53:26.614Z,250
2019-03-19T07:54:25.251Z,240
2019-03-19T07:55:25.909Z,240
2019-03-19T07:56:25.529Z,240
2019-03-19T07:57:25.577Z,245
2019-03-19T07:58:47.576Z,245
2019-03-19T07:59:25.749Z,245
2019-03-19T08:00:25.612Z,250
2019-03-19T08:01:27.122Z,245
2019-03-19T08:02:25.535Z,245
2019-03-19T08:03:26.199Z,245
2019-03-19T08:04:25.762Z,245
2019-03-19T08:05:35.356Z,245
2019-03-19T08:06:25.511Z,245
2019-03-19T08:07:25.760Z,245
2019-03-19T08:08:25.504Z,245
2019-03-19T08:09:25.893Z,245
2019-03-19T08:10:25.580Z,245
2019-03-19T08:11:26.428Z,245
2019-03-19T08:12:25.272Z,245
2019-03-19T08:13:24.771Z,240
2019-03-19T08:14:25.081Z,240
2019-03-19T08:15:25.836Z,240
2019-03-19T08:16:36.297Z,245
2019-03-19T08:17:25.887Z,240
2019-03-19T08:18:25.271Z,235
2019-03-19T08:19:25.525Z,235
2019-03-19T08:20:25.585Z,235
2019-03-19T08:21:27.309Z,235
2019-03-19T08:22:25.613Z,235
2019-03-19T08:23:25.775Z,230
2019-03-19T08:24:25.541Z,230
2019-03-19T08:25:25.471Z,235
2019-03-19T08:26:25.302Z,230
2019-03-19T08:27:25.302Z,230
2019-03-19T08:28:25.558Z,230
2019-03-19T08:29:25.816Z,230
2019-03-19T08:30:27.305Z,230
2019-03-19T08:31:25.588Z,230
2019-03-19T08:32:25.539Z,230
2019-03-19T08:33:25.552Z,225
2019-03-19T08:34:25.533Z,225
2019-03-19T08:35:25.045Z,240
2019-03-19T08:36:25.298Z,240
2019-03-19T08:37:25.078Z,240
2019-03-19T08:38:26.520Z,245
2019-03-19T08:39:25.418Z,245
2019-03-19T08:40:25.421Z,245
2019-03-19T08:41:25.783Z,245
2019-03-19T08:42:25.294Z,250
2019-03-19T08:43:27.583Z,240
2019-03-19T08:44:34.320Z,245
2019-03-19T08:45:25.866Z,245
2019-03-19T08:46:25.021Z,245
2019-03-19T08:47:25.764Z,245
2019-03-19T08:48:25.267Z,250
2019-03-19T08:49:27.156Z,245
2019-03-19T08:50:25.528Z,245
2019-03-19T08:51:25.265Z,245
2019-03-19T08:52:25.502Z,245
2019-03-19T08:53:25.239Z,255
2019-03-19T08:54:27.100Z,250
2019-03-19T08:55:25.729Z,250
2019-03-19T08:56:25.222Z,255
2019-03-19T08:57:25.485Z,265
2019-03-19T08:58:25.224Z,275
2019-03-19T08:59:25.460Z,275
2019-03-19T09:00:25.536Z,280
2019-03-19T09:01:24.966Z,285
2019-03-19T09:02:25.695Z,295
2019-03-19T09:03:25.735Z,295
2019-03-19T09:04:25.453Z,300
2019-03-19T09:05:25.249Z,305
2019-03-19T09:06:25.450Z,305
2019-03-19T09:07:27.064Z,305
2019-03-19T09:08:24.938Z,305
2019-03-19T09:09:25.185Z,315
2019-03-19T09:10:25.033Z,320
2019-03-19T09:11:25.661Z,320
2019-03-19T09:12:25.407Z,315
2019-03-19T09:13:25.400Z,320
2019-03-19T09:14:25.428Z,320
2019-03-19T09:15:25.274Z,325
2019-03-19T09:16:25.634Z,320
2019-03-19T09:17:24.638Z,315
2019-03-19T09:18:25.507Z,310
2019-03-19T09:19:25.395Z,310
2019-03-19T09:20:25.171Z,305
2019-03-19T09:21:25.135Z,305
2019-03-19T09:22:32.249Z,310
2019-03-19T09:23:25.376Z,315
2019-03-19T09:24:26.502Z,315
2019-03-19T09:25:25.158Z,310
2019-03-19T09:26:25.179Z,305
2019-03-19T09:27:25.091Z,305
2019-03-19T09:28:24.840Z,300
2019-03-19T09:29:27.899Z,300
2019-03-19T09:30:25.180Z,300
2019-03-19T09:31:25.372Z,300
2019-03-19T09:32:25.351Z,305
2019-03-19T09:33:25.573Z,305
2019-03-19T09:34:25.344Z,305
2019-03-19T09:35:26.209Z,305
2019-03-19T09:36:25.320Z,300
2019-03-19T09:37:25.600Z,300
2019-03-19T09:38:25.078Z,300
2019-03-19T09:39:25.132Z,305
2019-03-19T09:40:24.950Z,310
2019-03-19T09:41:25.542Z,315
2019-03-19T09:42:24.528Z,315
2019-03-19T09:43:25.039Z,315
2019-03-19T09:44:25.029Z,305
2019-03-19T09:45:25.172Z,250
2019-03-19T09:46:25.799Z,225
2019-03-19T09:47:25.277Z,215
2019-03-19T09:48:24.786Z,215
2019-03-19T09:49:25.953Z,215
2019-03-19T09:50:24.794Z,220
2019-03-19T09:51:24.765Z,220
2019-03-19T09:52:24.991Z,225
2019-03-19T09:53:25.786Z,220
2019-03-19T09:54:25.230Z,220
2019-03-19T09:55:25.064Z,250
2019-03-19T09:56:24.758Z,200
2019-03-19T09:57:25.482Z,190
2019-03-19T09:58:24.737Z,185
2019-03-19T09:59:34.273Z,185
2019-03-19T10:00:25.290Z,185
2019-03-19T10:01:24.976Z,185
2019-03-19T10:02:26.275Z,185
2019-03-19T10:03:25.458Z,190
2019-03-19T10:04:24.510Z,190
2019-03-19T10:05:25.230Z,195
2019-03-19T10:06:24.708Z,200
2019-03-19T10:07:25.424Z,205
2019-03-19T10:08:25.441Z,215
2019-03-19T10:09:25.298Z,215
2019-03-19T10:10:25.454Z,205
2019-03-19T10:11:25.460Z,220
2019-03-19T10:12:24.672Z,205
2019-03-19T10:13:25.422Z,205
2019-03-19T10:14:25.396Z,205
2019-03-19T10:15:25.548Z,205
2019-03-19T10:16:24.919Z,210
2019-03-19T10:17:24.676Z,215
2019-03-19T10:18:24.923Z,265
2019-03-19T10:19:25.124Z,255
2019-03-19T10:20:27.497Z,225
2019-03-19T10:21:25.376Z,225
2019-03-19T10:22:25.145Z,225
2019-03-19T10:23:24.934Z,230
2019-03-19T10:24:24.900Z,225
2019-03-19T10:25:25.476Z,235
2019-03-19T10:26:25.159Z,235
2019-03-19T10:27:26.665Z,240
2019-03-19T10:28:25.103Z,245
2019-03-19T10:29:25.399Z,250
2019-03-19T10:30:24.927Z,250
2019-03-19T10:31:25.322Z,245
2019-03-19T10:32:24.830Z,240
2019-03-19T10:33:25.741Z,245
2019-03-19T10:34:24.855Z,265
2019-03-19T10:35:25.107Z,320
2019-03-19T10:36:24.550Z,240
2019-03-19T10:37:25.065Z,305
2019-03-19T10:38:25.062Z,305
2019-03-19T10:39:25.304Z,265
2019-03-19T10:40:24.686Z,295
2019-03-19T10:41:24.821Z,295
2019-03-19T10:42:25.020Z,295
2019-03-19T10:43:24.548Z,300
2019-03-19T10:44:25.032Z,305
2019-03-19T10:45:24.830Z,295
2019-03-19T10:46:24.763Z,290
2019-03-19T10:47:25.024Z,285
2019-03-19T10:48:25.011Z,285
2019-03-19T10:49:24.525Z,270
2019-03-19T10:50:25.141Z,215
2019-03-19T10:51:24.997Z,215
2019-03-19T10:52:25.244Z,215
2019-03-19T10:53:25.001Z,215
2019-03-19T10:54:24.989Z,215
2019-03-19T10:55:25.090Z,210
2019-03-19T10:56:24.978Z,210
2019-03-19T10:57:24.990Z,200
2019-03-19T10:58:25.007Z,195
2019-03-19T10:59:25.223Z,190
2019-03-19T11:00:25.279Z,185
2019-03-19T11:01:24.463Z,185
2019-03-19T11:02:24.708Z,185
2019-03-19T11:03:24.715Z,180
2019-03-19T11:04:24.711Z,180
2019-03-19T11:05:24.995Z,180
2019-03-19T11:06:24.721Z,185
2019-03-19T11:07:24.695Z,190
2019-03-19T11:08:25.193Z,195
2019-03-19T11:09:24.728Z,205
2019-03-19T11:10:24.781Z,210
2019-03-19T11:11:24.682Z,210
2019-03-19T11:12:24.918Z,245
2019-03-19T11:13:24.680Z,280
2019-03-19T11:14:24.668Z,280
2019-03-19T11:15:24.939Z,280
2019-03-19T11:16:24.662Z,270
2019-03-19T11:17:24.933Z,270
2019-03-19T11:18:25.160Z,270
2019-03-19T11:19:24.639Z,270
2019-03-19T11:20:24.489Z,260
2019-03-19T11:21:25.305Z,260
2019-03-19T11:22:24.625Z,260
2019-03-19T11:23:24.382Z,265
2019-03-19T11:24:25.130Z,275
2019-03-19T11:25:24.970Z,275
2019-03-19T11:26:24.360Z,270
2019-03-19T11:27:24.384Z,270
2019-03-19T11:28:24.852Z,265
2019-03-19T11:29:24.596Z,240
2019-03-19T11:30:24.870Z,210
2019-03-19T11:31:25.067Z,215
2019-03-19T11:32:25.106Z,280
2019-03-19T11:33:24.578Z,255
2019-03-19T11:34:24.842Z,240
2019-03-19T11:35:24.935Z,225
2019-03-19T11:36:24.842Z,265
2019-03-19T11:37:24.879Z,280
2019-03-19T11:38:25.134Z,275
2019-03-19T11:39:24.057Z,265
2019-03-19T11:40:27.940Z,260
2019-03-19T11:41:25.067Z,255
2019-03-19T11:42:24.781Z,250
2019-03-19T11:43:24.544Z,250
2019-03-19T11:44:24.542Z,250
2019-03-19T11:45:24.898Z,245
2019-03-19T11:46:24.275Z,195
2019-03-19T11:47:24.761Z,210
2019-03-19T11:48:24.788Z,190
2019-03-19T11:49:24.513Z,220
2019-03-19T11:50:25.053Z,245
2019-03-19T11:51:24.758Z,245
2019-03-19T11:52:24.261Z,250
2019-03-19T11:53:24.491Z,250
2019-03-19T11:54:24.245Z,235
2019-03-19T11:55:25.405Z,215
2019-03-19T11:56:24.470Z,250
2019-03-19T11:57:24.996Z,255
2019-03-19T11:58:24.717Z,260
2019-03-19T11:59:24.748Z,260
2019-03-19T12:00:24.775Z,260
2019-03-19T12:01:23.996Z,265
2019-03-19T12:02:35.399Z,260
2019-03-19T12:03:25.949Z,260
2019-03-19T12:04:24.738Z,265
2019-03-19T12:05:24.947Z,270
2019-03-19T12:06:24.695Z,275
2019-03-19T12:07:24.974Z,270
2019-03-19T12:08:23.983Z,265
2019-03-19T12:09:24.683Z,270
2019-03-19T12:10:25.129Z,280
2019-03-19T12:11:24.477Z,270
2019-03-19T12:12:24.956Z,265
2019-03-19T12:13:24.681Z,265
2019-03-19T12:14:24.928Z,260
2019-03-19T12:15:24.982Z,255
2019-03-19T12:16:24.652Z,250
2019-03-19T12:17:24.403Z,250
2019-03-19T12:18:24.407Z,250
2019-03-19T12:19:24.651Z,245
2019-03-19T12:20:25.475Z,245
2019-03-19T12:21:24.657Z,235
2019-03-19T12:22:24.893Z,235
2019-03-19T12:23:24.889Z,230
2019-03-19T12:24:24.389Z,230
2019-03-19T12:25:26.026Z,230
2019-03-19T12:26:24.409Z,230
2019-03-19T12:27:24.498Z,230
2019-03-19T12:28:24.620Z,235
2019-03-19T12:29:24.358Z,235
2019-03-19T12:30:33.379Z,235
2019-03-19T12:31:24.370Z,235
2019-03-19T12:32:24.369Z,240
2019-03-19T12:33:24.631Z,240
2019-03-19T12:34:24.161Z,245
2019-03-19T12:35:24.433Z,245
2019-03-19T12:36:24.106Z,245
2019-03-19T12:37:24.099Z,240
2019-03-19T12:38:24.621Z,235
2019-03-19T12:39:24.386Z,230
2019-03-19T12:40:35.830Z,225
2019-03-19T12:41:24.883Z,225
2019-03-19T12:42:24.369Z,210
2019-03-19T12:43:24.543Z,235
2019-03-19T12:44:24.815Z,240
2019-03-19T12:45:24.383Z,235
2019-03-19T12:46:24.673Z,235
2019-03-19T12:47:24.055Z,240
2019-03-19T12:48:24.556Z,245
2019-03-19T12:49:24.799Z,250
2019-03-19T12:50:24.806Z,250
2019-03-19T12:51:24.776Z,250
2019-03-19T12:52:24.820Z,245
2019-03-19T12:53:24.269Z,245
2019-03-19T12:54:24.766Z,240
2019-03-19T12:55:24.292Z,235
2019-03-19T12:56:25.057Z,235
2019-03-19T12:57:24.246Z,230
2019-03-19T12:58:24.560Z,225
2019-03-19T12:59:29.136Z,225
2019-03-19T13:00:57.928Z,220
2019-03-19T13:01:25.187Z,220
2019-03-19T13:02:24.234Z,220
2019-03-19T13:03:24.503Z,220
2019-03-19T13:04:24.010Z,225
2019-03-19T13:05:26.944Z,225
2019-03-19T13:06:24.234Z,225
2019-03-19T13:07:24.263Z,225
2019-03-19T13:08:27.431Z,225
2019-03-19T13:09:24.736Z,225
2019-03-19T13:10:24.265Z,225
2019-03-19T13:11:23.951Z,225
2019-03-19T13:12:24.706Z,220
2019-03-19T13:13:24.452Z,215
2019-03-19T13:14:24.208Z,210
2019-03-19T13:15:26.521Z,210
2019-03-19T13:16:24.434Z,210
2019-03-19T13:17:24.175Z,215
2019-03-19T13:18:24.163Z,215
2019-03-19T13:19:24.166Z,220
2019-03-19T13:20:24.245Z,215
2019-03-19T13:21:24.676Z,215
2019-03-19T13:22:24.421Z,215
2019-03-19T13:23:26.216Z,210
2019-03-19T13:24:26.349Z,205
2019-03-19T13:25:24.234Z,200
2019-03-19T13:26:24.408Z,195
2019-03-19T13:27:24.144Z,185
2019-03-19T13:28:24.647Z,185
2019-03-19T13:29:24.145Z,190
2019-03-19T13:30:24.479Z,195
2019-03-19T13:31:24.396Z,195
2019-03-19T13:32:24.377Z,165
2019-03-19T13:33:24.913Z,165
2019-03-19T13:34:24.155Z,160
2019-03-19T13:35:24.700Z,165
2019-03-19T13:36:24.357Z,175
2019-03-19T13:37:24.431Z,165
2019-03-19T13:38:24.110Z,165
2019-03-19T13:39:24.592Z,165
2019-03-19T13:40:24.416Z,160
2019-03-19T13:41:24.583Z,160
2019-03-19T13:42:24.573Z,160
2019-03-19T13:43:24.319Z,160
2019-03-19T13:44:24.304Z,165
2019-03-19T13:45:24.570Z,170
2019-03-19T13:46:24.294Z,185
2019-03-19T13:47:23.823Z,160
2019-03-19T13:48:24.031Z,155
2019-03-19T13:49:24.305Z,160
2019-03-19T13:50:24.118Z,150
2019-03-19T13:51:24.050Z,145
2019-03-19T13:52:24.551Z,145
2019-03-19T13:53:24.534Z,145
2019-03-19T13:54:26.072Z,145
2019-03-19T13:55:24.342Z,145
2019-03-19T13:56:25.051Z,155
2019-03-19T13:57:24.247Z,140
2019-03-19T13:58:24.244Z,140
2019-03-19T13:59:24.123Z,140
2019-03-19T14:00:24.244Z,135
2019-03-19T14:01:24.802Z,135
2019-03-19T14:02:23.982Z,135
2019-03-19T14:03:24.248Z,135
2019-03-19T14:04:25.670Z,135
2019-03-19T14:05:24.458Z,135
2019-03-19T14:06:23.997Z,135
2019-03-19T14:07:23.939Z,135
2019-03-19T14:08:24.783Z,135
2019-03-19T14:09:23.912Z,165
2019-03-19T14:10:23.993Z,170
2019-03-19T14:11:23.920Z,170
2019-03-19T14:12:23.907Z,170